sensor_id;sensor_type;location;lat;lon;timestamp;P1;durP1;ratioP1;P2;durP2;ratioP2
35797;SDS011;21918;49.940;7.774;2023-07-16T00:01:01;5.32;;;1.58;;
35797;SDS011;21918;49.940;7.774;2023-07-16T00:03:27;2.45;;;1.95;;
35797;SDS011;21918;49.940;7.774;2023-07-16T00:05:55;2.15;;;1.75;;
35797;SDS011;21918;49.940;7.774;2023-07-16T00:08:22;2.28;;;1.50;;
35797;SDS011;21918;49.940;7.774;2023-07-16T00:10:49;1.75;;;1.42;;
35797;SDS011;21918;49.940;7.774;2023-07-16T00:13:16;2.55;;;1.40;;
35797;SDS011;21918;49.940;7.774;2023-07-16T00:15:42;3.25;;;1.20;;
35797;SDS011;21918;49.940;7.774;2023-07-16T00:18:09;1.60;;;1.50;;
35797;SDS011;21918;49.940;7.774;2023-07-16T00:20:35;10.02;;;1.80;;
35797;SDS011;21918;49.940;7.774;2023-07-16T00:23:03;1.95;;;1.85;;
35797;SDS011;21918;49.940;7.774;2023-07-16T00:25:32;2.20;;;1.90;;
35797;SDS011;21918;49.940;7.774;2023-07-16T00:28:00;4.43;;;1.55;;
35797;SDS011;21918;49.940;7.774;2023-07-16T00:30:27;1.50;;;1.25;;
35797;SDS011;21918;49.940;7.774;2023-07-16T00:32:54;1.92;;;1.65;;
35797;SDS011;21918;49.940;7.774;2023-07-16T00:35:20;2.10;;;1.70;;
35797;SDS011;21918;49.940;7.774;2023-07-16T00:37:49;2.47;;;1.90;;
35797;SDS011;21918;49.940;7.774;2023-07-16T00:40:18;1.83;;;1.52;;
35797;SDS011;21918;49.940;7.774;2023-07-16T00:42:44;3.35;;;2.30;;
35797;SDS011;21918;49.940;7.774;2023-07-16T00:45:12;2.40;;;1.58;;
35797;SDS011;21918;49.940;7.774;2023-07-16T00:47:40;2.70;;;1.48;;
35797;SDS011;21918;49.940;7.774;2023-07-16T00:50:08;1.77;;;1.63;;
35797;SDS011;21918;49.940;7.774;2023-07-16T00:52:36;2.15;;;1.50;;
35797;SDS011;21918;49.940;7.774;2023-07-16T00:55:05;1.92;;;1.77;;
35797;SDS011;21918;49.940;7.774;2023-07-16T00:57:37;1.67;;;1.40;;
35797;SDS011;21918;49.940;7.774;2023-07-16T01:00:07;2.17;;;1.50;;
35797;SDS011;21918;49.940;7.774;2023-07-16T01:02:38;4.95;;;1.92;;
35797;SDS011;21918;49.940;7.774;2023-07-16T01:05:05;2.33;;;2.13;;
35797;SDS011;21918;49.940;7.774;2023-07-16T01:07:35;3.97;;;1.92;;
35797;SDS011;21918;49.940;7.774;2023-07-16T01:10:03;4.30;;;1.92;;
35797;SDS011;21918;49.940;7.774;2023-07-16T01:12:30;2.38;;;1.58;;
35797;SDS011;21918;49.940;7.774;2023-07-16T01:15:00;1.92;;;1.73;;
35797;SDS011;21918;49.940;7.774;2023-07-16T01:17:30;1.80;;;1.70;;
35797;SDS011;21918;49.940;7.774;2023-07-16T01:19:57;2.63;;;2.25;;
35797;SDS011;21918;49.940;7.774;2023-07-16T01:22:28;6.70;;;2.08;;
35797;SDS011;21918;49.940;7.774;2023-07-16T01:28:20;1.65;;;1.50;;
35797;SDS011;21918;49.940;7.774;2023-07-16T01:31:12;3.22;;;1.75;;
35797;SDS011;21918;49.940;7.774;2023-07-16T01:33:39;2.35;;;2.00;;
35797;SDS011;21918;49.940;7.774;2023-07-16T01:36:09;4.45;;;1.75;;
35797;SDS011;21918;49.940;7.774;2023-07-16T01:38:39;2.08;;;1.38;;
35797;SDS011;21918;49.940;7.774;2023-07-16T01:41:07;1.52;;;1.42;;
35797;SDS011;21918;49.940;7.774;2023-07-16T01:43:33;2.10;;;1.75;;
35797;SDS011;21918;49.940;7.774;2023-07-16T01:46:00;1.55;;;1.45;;
35797;SDS011;21918;49.940;7.774;2023-07-16T01:48:33;1.67;;;1.40;;
35797;SDS011;21918;49.940;7.774;2023-07-16T01:51:01;1.30;;;1.20;;
35797;SDS011;21918;49.940;7.774;2023-07-16T01:53:28;2.17;;;1.35;;
35797;SDS011;21918;49.940;7.774;2023-07-16T01:56:02;4.50;;;2.10;;
35797;SDS011;21918;49.940;7.774;2023-07-16T01:58:29;1.70;;;1.60;;
35797;SDS011;21918;49.940;7.774;2023-07-16T02:00:58;1.60;;;1.50;;
35797;SDS011;21918;49.940;7.774;2023-07-16T02:03:25;1.90;;;1.60;;
35797;SDS011;21918;49.940;7.774;2023-07-16T02:05:53;1.98;;;1.50;;
35797;SDS011;21918;49.940;7.774;2023-07-16T02:08:20;1.52;;;1.42;;
35797;SDS011;21918;49.940;7.774;2023-07-16T02:10:47;2.40;;;1.95;;
35797;SDS011;21918;49.940;7.774;2023-07-16T02:13:13;1.70;;;1.60;;
35797;SDS011;21918;49.940;7.774;2023-07-16T02:15:40;2.40;;;1.90;;
35797;SDS011;21918;49.940;7.774;2023-07-16T02:18:08;1.35;;;1.25;;
35797;SDS011;21918;49.940;7.774;2023-07-16T02:20:37;6.63;;;1.95;;
35797;SDS011;21918;49.940;7.774;2023-07-16T02:23:08;3.05;;;1.73;;
35797;SDS011;21918;49.940;7.774;2023-07-16T02:25:35;3.33;;;2.25;;
35797;SDS011;21918;49.940;7.774;2023-07-16T02:28:01;2.33;;;2.10;;
35797;SDS011;21918;49.940;7.774;2023-07-16T02:30:28;3.88;;;2.25;;
35797;SDS011;21918;49.940;7.774;2023-07-16T02:32:55;2.92;;;2.28;;
35797;SDS011;21918;49.940;7.774;2023-07-16T02:35:22;1.92;;;1.83;;
35797;SDS011;21918;49.940;7.774;2023-07-16T02:37:51;5.97;;;2.53;;
35797;SDS011;21918;49.940;7.774;2023-07-16T02:40:19;2.40;;;2.17;;
35797;SDS011;21918;49.940;7.774;2023-07-16T02:42:46;2.17;;;1.90;;
35797;SDS011;21918;49.940;7.774;2023-07-16T02:45:13;3.22;;;2.20;;
35797;SDS011;21918;49.940;7.774;2023-07-16T02:47:39;3.25;;;2.08;;
35797;SDS011;21918;49.940;7.774;2023-07-16T02:50:06;2.03;;;1.92;;
35797;SDS011;21918;49.940;7.774;2023-07-16T02:52:34;7.50;;;1.98;;
35797;SDS011;21918;49.940;7.774;2023-07-16T02:55:06;2.53;;;2.20;;
35797;SDS011;21918;49.940;7.774;2023-07-16T02:57:35;2.15;;;1.95;;
35797;SDS011;21918;49.940;7.774;2023-07-16T03:00:01;2.40;;;1.88;;
35797;SDS011;21918;49.940;7.774;2023-07-16T03:02:29;2.33;;;1.80;;
35797;SDS011;21918;49.940;7.774;2023-07-16T03:04:56;4.15;;;2.00;;
35797;SDS011;21918;49.940;7.774;2023-07-16T03:07:23;2.53;;;1.98;;
35797;SDS011;21918;49.940;7.774;2023-07-16T03:09:50;3.65;;;1.90;;
35797;SDS011;21918;49.940;7.774;2023-07-16T03:12:16;2.58;;;2.35;;
35797;SDS011;21918;49.940;7.774;2023-07-16T03:14:44;2.72;;;2.03;;
35797;SDS011;21918;49.940;7.774;2023-07-16T03:17:11;2.22;;;1.90;;
35797;SDS011;21918;49.940;7.774;2023-07-16T03:19:38;1.70;;;1.60;;
35797;SDS011;21918;49.940;7.774;2023-07-16T03:22:05;3.55;;;2.13;;
35797;SDS011;21918;49.940;7.774;2023-07-16T03:24:32;6.95;;;2.33;;
35797;SDS011;21918;49.940;7.774;2023-07-16T03:26:58;3.20;;;1.55;;
35797;SDS011;21918;49.940;7.774;2023-07-16T03:29:25;6.03;;;2.22;;
35797;SDS011;21918;49.940;7.774;2023-07-16T03:31:53;2.90;;;1.55;;
35797;SDS011;21918;49.940;7.774;2023-07-16T03:34:21;2.92;;;1.73;;
35797;SDS011;21918;49.940;7.774;2023-07-16T03:36:49;3.72;;;1.63;;
35797;SDS011;21918;49.940;7.774;2023-07-16T03:39:18;2.97;;;2.10;;
35797;SDS011;21918;49.940;7.774;2023-07-16T03:41:48;2.53;;;1.48;;
35797;SDS011;21918;49.940;7.774;2023-07-16T03:44:14;4.40;;;2.22;;
35797;SDS011;21918;49.940;7.774;2023-07-16T03:46:41;2.70;;;1.33;;
35797;SDS011;21918;49.940;7.774;2023-07-16T03:49:09;1.80;;;1.63;;
35797;SDS011;21918;49.940;7.774;2023-07-16T03:51:36;3.67;;;1.90;;
35797;SDS011;21918;49.940;7.774;2023-07-16T03:54:03;3.05;;;1.50;;
35797;SDS011;21918;49.940;7.774;2023-07-16T03:56:31;3.67;;;1.90;;
35797;SDS011;21918;49.940;7.774;2023-07-16T03:58:58;1.98;;;1.40;;
35797;SDS011;21918;49.940;7.774;2023-07-16T04:01:25;2.45;;;1.60;;
35797;SDS011;21918;49.940;7.774;2023-07-16T04:03:51;2.10;;;1.52;;
35797;SDS011;21918;49.940;7.774;2023-07-16T04:06:22;1.55;;;1.27;;
35797;SDS011;21918;49.940;7.774;2023-07-16T04:08:49;2.53;;;1.90;;
35797;SDS011;21918;49.940;7.774;2023-07-16T04:11:16;1.92;;;1.20;;
35797;SDS011;21918;49.940;7.774;2023-07-16T04:13:43;2.88;;;1.65;;
35797;SDS011;21918;49.940;7.774;2023-07-16T04:16:09;1.77;;;1.30;;
35797;SDS011;21918;49.940;7.774;2023-07-16T04:18:38;2.78;;;1.70;;
35797;SDS011;21918;49.940;7.774;2023-07-16T04:21:05;3.15;;;1.88;;
35797;SDS011;21918;49.940;7.774;2023-07-16T04:23:33;1.20;;;1.10;;
35797;SDS011;21918;49.940;7.774;2023-07-16T04:26:00;2.10;;;1.20;;
35797;SDS011;21918;49.940;7.774;2023-07-16T04:28:26;6.95;;;1.85;;
35797;SDS011;21918;49.940;7.774;2023-07-16T04:30:53;3.08;;;1.48;;
35797;SDS011;21918;49.940;7.774;2023-07-16T04:33:20;4.15;;;1.60;;
35797;SDS011;21918;49.940;7.774;2023-07-16T04:35:46;3.35;;;2.33;;
35797;SDS011;21918;49.940;7.774;2023-07-16T04:38:15;1.58;;;1.45;;
35797;SDS011;21918;49.940;7.774;2023-07-16T04:40:43;8.38;;;1.77;;
35797;SDS011;21918;49.940;7.774;2023-07-16T04:43:10;1.95;;;1.75;;
35797;SDS011;21918;49.940;7.774;2023-07-16T04:45:36;4.55;;;1.55;;
35797;SDS011;21918;49.940;7.774;2023-07-16T04:48:05;3.10;;;1.70;;
35797;SDS011;21918;49.940;7.774;2023-07-16T04:50:31;3.35;;;2.10;;
35797;SDS011;21918;49.940;7.774;2023-07-16T04:52:58;1.60;;;1.50;;
35797;SDS011;21918;49.940;7.774;2023-07-16T04:55:25;2.25;;;1.58;;
35797;SDS011;21918;49.940;7.774;2023-07-16T04:57:53;2.25;;;1.42;;
35797;SDS011;21918;49.940;7.774;2023-07-16T05:00:22;1.30;;;1.20;;
35797;SDS011;21918;49.940;7.774;2023-07-16T05:02:48;1.90;;;1.70;;
35797;SDS011;21918;49.940;7.774;2023-07-16T05:05:18;3.30;;;1.85;;
35797;SDS011;21918;49.940;7.774;2023-07-16T05:07:45;6.55;;;1.58;;
35797;SDS011;21918;49.940;7.774;2023-07-16T05:10:12;4.25;;;1.30;;
35797;SDS011;21918;49.940;7.774;2023-07-16T05:12:38;1.30;;;1.20;;
35797;SDS011;21918;49.940;7.774;2023-07-16T05:15:07;1.75;;;1.65;;
35797;SDS011;21918;49.940;7.774;2023-07-16T05:17:37;2.28;;;1.50;;
35797;SDS011;21918;49.940;7.774;2023-07-16T05:20:04;2.85;;;1.73;;
35797;SDS011;21918;49.940;7.774;2023-07-16T05:22:32;1.33;;;1.23;;
35797;SDS011;21918;49.940;7.774;2023-07-16T05:25:01;2.00;;;1.50;;
35797;SDS011;21918;49.940;7.774;2023-07-16T05:27:28;1.83;;;1.42;;
35797;SDS011;21918;49.940;7.774;2023-07-16T05:29:55;5.57;;;1.98;;
35797;SDS011;21918;49.940;7.774;2023-07-16T05:32:23;1.52;;;1.40;;
35797;SDS011;21918;49.940;7.774;2023-07-16T05:34:49;7.28;;;1.80;;
35797;SDS011;21918;49.940;7.774;2023-07-16T05:37:16;1.95;;;1.40;;
35797;SDS011;21918;49.940;7.774;2023-07-16T05:39:42;4.53;;;1.63;;
35797;SDS011;21918;49.940;7.774;2023-07-16T05:42:12;2.35;;;1.23;;
35797;SDS011;21918;49.940;7.774;2023-07-16T05:44:40;2.13;;;1.92;;
35797;SDS011;21918;49.940;7.774;2023-07-16T05:47:06;2.65;;;2.03;;
35797;SDS011;21918;49.940;7.774;2023-07-16T05:49:34;2.50;;;1.58;;
35797;SDS011;21918;49.940;7.774;2023-07-16T05:52:01;2.05;;;1.85;;
35797;SDS011;21918;49.940;7.774;2023-07-16T05:54:32;2.70;;;1.92;;
35797;SDS011;21918;49.940;7.774;2023-07-16T05:56:59;3.30;;;1.50;;
35797;SDS011;21918;49.940;7.774;2023-07-16T05:59:26;5.85;;;2.28;;
35797;SDS011;21918;49.940;7.774;2023-07-16T06:01:54;3.28;;;2.10;;
35797;SDS011;21918;49.940;7.774;2023-07-16T06:04:22;4.20;;;2.28;;
35797;SDS011;21918;49.940;7.774;2023-07-16T06:06:50;6.45;;;2.20;;
35797;SDS011;21918;49.940;7.774;2023-07-16T06:09:17;4.60;;;2.35;;
35797;SDS011;21918;49.940;7.774;2023-07-16T06:11:45;3.30;;;2.17;;
35797;SDS011;21918;49.940;7.774;2023-07-16T06:14:15;4.88;;;2.58;;
35797;SDS011;21918;49.940;7.774;2023-07-16T06:16:42;8.82;;;2.95;;
35797;SDS011;21918;49.940;7.774;2023-07-16T06:19:09;7.07;;;2.47;;
35797;SDS011;21918;49.940;7.774;2023-07-16T06:21:36;4.60;;;2.42;;
35797;SDS011;21918;49.940;7.774;2023-07-16T06:24:06;4.47;;;2.42;;
35797;SDS011;21918;49.940;7.774;2023-07-16T06:26:33;2.65;;;2.42;;
35797;SDS011;21918;49.940;7.774;2023-07-16T06:29:00;10.98;;;3.13;;
35797;SDS011;21918;49.940;7.774;2023-07-16T06:31:26;7.05;;;2.80;;
35797;SDS011;21918;49.940;7.774;2023-07-16T06:33:53;7.30;;;3.20;;
35797;SDS011;21918;49.940;7.774;2023-07-16T06:36:21;2.97;;;2.58;;
35797;SDS011;21918;49.940;7.774;2023-07-16T06:38:48;4.78;;;3.17;;
35797;SDS011;21918;49.940;7.774;2023-07-16T06:41:17;6.15;;;2.90;;
35797;SDS011;21918;49.940;7.774;2023-07-16T06:43:44;3.78;;;3.38;;
35797;SDS011;21918;49.940;7.774;2023-07-16T06:46:11;7.05;;;2.72;;
35797;SDS011;21918;49.940;7.774;2023-07-16T06:48:38;12.35;;;4.13;;
35797;SDS011;21918;49.940;7.774;2023-07-16T06:51:07;3.67;;;3.28;;
35797;SDS011;21918;49.940;7.774;2023-07-16T06:53:34;5.40;;;3.55;;
35797;SDS011;21918;49.940;7.774;2023-07-16T06:56:01;7.45;;;3.30;;
35797;SDS011;21918;49.940;7.774;2023-07-16T06:58:32;6.88;;;3.13;;
35797;SDS011;21918;49.940;7.774;2023-07-16T07:01:02;3.63;;;3.20;;
35797;SDS011;21918;49.940;7.774;2023-07-16T07:03:30;6.07;;;2.88;;
35797;SDS011;21918;49.940;7.774;2023-07-16T07:05:58;5.10;;;2.63;;
35797;SDS011;21918;49.940;7.774;2023-07-16T07:08:32;9.48;;;3.60;;
35797;SDS011;21918;49.940;7.774;2023-07-16T07:10:59;9.25;;;3.38;;
35797;SDS011;21918;49.940;7.774;2023-07-16T07:13:26;4.13;;;3.13;;
35797;SDS011;21918;49.940;7.774;2023-07-16T07:15:55;3.58;;;3.22;;
35797;SDS011;21918;49.940;7.774;2023-07-16T07:18:22;5.97;;;3.10;;
35797;SDS011;21918;49.940;7.774;2023-07-16T07:20:52;5.85;;;2.78;;
35797;SDS011;21918;49.940;7.774;2023-07-16T07:23:18;4.25;;;3.10;;
35797;SDS011;21918;49.940;7.774;2023-07-16T07:25:48;3.53;;;2.97;;
35797;SDS011;21918;49.940;7.774;2023-07-16T07:28:15;6.25;;;3.28;;
35797;SDS011;21918;49.940;7.774;2023-07-16T07:30:45;7.18;;;3.22;;
35797;SDS011;21918;49.940;7.774;2023-07-16T07:33:13;2.65;;;2.45;;
35797;SDS011;21918;49.940;7.774;2023-07-16T07:35:43;4.05;;;3.65;;
35797;SDS011;21918;49.940;7.774;2023-07-16T07:38:10;7.85;;;3.20;;
35797;SDS011;21918;49.940;7.774;2023-07-16T07:40:36;8.05;;;3.60;;
35797;SDS011;21918;49.940;7.774;2023-07-16T07:43:03;6.25;;;3.03;;
35797;SDS011;21918;49.940;7.774;2023-07-16T07:45:29;5.03;;;2.70;;
35797;SDS011;21918;49.940;7.774;2023-07-16T07:47:56;8.75;;;3.97;;
35797;SDS011;21918;49.940;7.774;2023-07-16T07:50:27;8.52;;;3.33;;
35797;SDS011;21918;49.940;7.774;2023-07-16T07:52:54;6.00;;;3.45;;
35797;SDS011;21918;49.940;7.774;2023-07-16T07:55:21;4.75;;;3.17;;
35797;SDS011;21918;49.940;7.774;2023-07-16T07:57:47;6.10;;;3.17;;
35797;SDS011;21918;49.940;7.774;2023-07-16T08:00:16;4.03;;;2.65;;
35797;SDS011;21918;49.940;7.774;2023-07-16T08:02:43;6.60;;;3.08;;
35797;SDS011;21918;49.940;7.774;2023-07-16T08:05:12;7.10;;;2.95;;
35797;SDS011;21918;49.940;7.774;2023-07-16T08:07:40;9.10;;;3.72;;
35797;SDS011;21918;49.940;7.774;2023-07-16T08:10:07;5.95;;;3.55;;
35797;SDS011;21918;49.940;7.774;2023-07-16T08:12:34;3.90;;;2.50;;
35797;SDS011;21918;49.940;7.774;2023-07-16T08:15:00;4.57;;;2.90;;
35797;SDS011;21918;49.940;7.774;2023-07-16T08:17:29;8.32;;;3.10;;
35797;SDS011;21918;49.940;7.774;2023-07-16T08:19:56;4.05;;;2.38;;
35797;SDS011;21918;49.940;7.774;2023-07-16T08:22:22;5.50;;;2.95;;
35797;SDS011;21918;49.940;7.774;2023-07-16T08:24:54;2.53;;;2.17;;
35797;SDS011;21918;49.940;7.774;2023-07-16T08:27:22;5.07;;;3.28;;
35797;SDS011;21918;49.940;7.774;2023-07-16T08:29:49;3.97;;;3.03;;
35797;SDS011;21918;49.940;7.774;2023-07-16T08:32:15;4.18;;;2.95;;
35797;SDS011;21918;49.940;7.774;2023-07-16T08:34:42;8.15;;;3.20;;
35797;SDS011;21918;49.940;7.774;2023-07-16T08:37:08;6.40;;;3.53;;
35797;SDS011;21918;49.940;7.774;2023-07-16T08:39:35;5.78;;;3.40;;
35797;SDS011;21918;49.940;7.774;2023-07-16T08:42:04;7.75;;;3.47;;
35797;SDS011;21918;49.940;7.774;2023-07-16T08:44:31;4.70;;;3.22;;
35797;SDS011;21918;49.940;7.774;2023-07-16T08:47:00;4.93;;;2.72;;
35797;SDS011;21918;49.940;7.774;2023-07-16T08:49:29;5.03;;;3.92;;
35797;SDS011;21918;49.940;7.774;2023-07-16T08:51:56;7.18;;;3.50;;
35797;SDS011;21918;49.940;7.774;2023-07-16T08:54:23;4.78;;;3.33;;
35797;SDS011;21918;49.940;7.774;2023-07-16T08:56:51;6.43;;;3.40;;
35797;SDS011;21918;49.940;7.774;2023-07-16T08:59:21;6.60;;;3.28;;
35797;SDS011;21918;49.940;7.774;2023-07-16T09:01:48;6.40;;;3.20;;
35797;SDS011;21918;49.940;7.774;2023-07-16T09:04:15;7.13;;;3.60;;
35797;SDS011;21918;49.940;7.774;2023-07-16T09:06:41;4.93;;;3.40;;
35797;SDS011;21918;49.940;7.774;2023-07-16T09:09:08;7.43;;;3.38;;
35797;SDS011;21918;49.940;7.774;2023-07-16T09:11:45;6.10;;;3.47;;
35797;SDS011;21918;49.940;7.774;2023-07-16T09:14:14;7.95;;;3.53;;
35797;SDS011;21918;49.940;7.774;2023-07-16T09:16:48;11.90;;;3.33;;
35797;SDS011;21918;49.940;7.774;2023-07-16T09:19:15;4.80;;;3.25;;
35797;SDS011;21918;49.940;7.774;2023-07-16T09:21:46;4.70;;;2.83;;
35797;SDS011;21918;49.940;7.774;2023-07-16T09:24:13;4.57;;;3.28;;
35797;SDS011;21918;49.940;7.774;2023-07-16T09:26:47;6.65;;;3.20;;
35797;SDS011;21918;49.940;7.774;2023-07-16T09:29:14;5.45;;;3.15;;
35797;SDS011;21918;49.940;7.774;2023-07-16T09:31:51;5.07;;;3.25;;
35797;SDS011;21918;49.940;7.774;2023-07-16T09:34:19;4.57;;;3.35;;
35797;SDS011;21918;49.940;7.774;2023-07-16T09:36:46;6.78;;;3.33;;
35797;SDS011;21918;49.940;7.774;2023-07-16T09:39:15;8.73;;;4.28;;
